DW9996 Weather Reports


Display with metric or nautical units.
time (UTC)temp
F
wind
direction
speed
MPH
gust
MPH
rain 1hr
in
rain 24hr
in
rain mn
in
humidity
%
barometer
mb
20221210060001 12 249 4.0 7.0 0.00 0.00 0.00 82 1016.8
20221210054606 12 223 3.0 6.0 0.00 0.00 0.00 82 1016.8
20221210053059 13 231 7.0 10.0 0.00 0.00 0.00 80 1016.6
20221210051555 13 236 6.0 9.0 0.00 0.00 0.00 79 1016.6
20221210050052 15 241 6.0 9.0 0.00 0.00 0.00 78 1016.7
20221210044548 17 261 3.0 5.0 0.00 0.00 0.00 75 1016.4
20221210043045 19 285 5.0 8.0 0.00 0.00 0.00 77 1016.2
20221210041544 17 286 5.0 8.0 0.00 0.00 0.00 79 1016.2
20221210040042 18 297 3.0 7.0 0.00 0.00 0.00 78 1016.2
20221210034542 18 288 4.0 7.0 0.00 0.00 0.00 79 1016.3
20221210033044 17 296 5.0 7.0 0.00 0.00 0.00 78 1016.2
20221210031545 19 296 4.0 7.0 0.00 0.00 0.00 75 1016.2
20221210030044 21 286 5.0 11.0 0.00 0.00 0.00 76 1016.2
20221210024537 21 294 7.0 11.0 0.00 0.00 0.00 76 1016.2
20221210023036 21 296 6.0 11.0 0.00 0.00 0.00 77 1015.9
20221210021536 20 292 4.0 8.0 0.00 0.00 0.00 77 1016.0
20221210020034 20 297 4.0 6.0 0.00 0.00 0.00 75 1015.7
20221210014534 24 292 4.0 7.0 0.00 0.00 0.00 74 1015.4
20221210013033 24 291 5.0 9.0 0.00 0.00 0.00 75 1015.3
20221210011535 25 286 6.0 12.0 0.00 0.00 0.00 72 1015.1
20221210010036 26 293 8.0 12.0 0.00 0.00 0.00 73 1015.2
20221210004532 27 292 8.0 12.0 0.00 0.00 0.00 72 1014.9
20221210003045 29 273 9.0 16.0 0.00 0.00 0.00 71 1014.7
20221210001530 29 272 9.0 16.0 0.00 0.00 0.00 71 1014.6
20221210000054 30 278 11.0 20.0 0.00 0.00 0.00 71 1014.2
20221209234529 30 281 6.0 11.0 0.00 0.00 0.00 70 1014.0
20221209233034 29 269 7.0 11.0 0.00 0.00 0.00 74 1013.9
20221209231527 28 286 3.0 6.0 0.00 0.00 0.00 74 1013.9
20221209230028 27 285 2.0 5.0 0.00 0.00 0.00 76 1013.5
20221209224526 26 265 3.0 6.0 0.00 0.00 0.00 77 1013.4
20221209223025 27 257 3.0 5.0 0.00 0.00 0.00 77 1013.3
20221209221532 27 266 4.0 7.0 0.00 0.00 0.00 75 1013.1
20221209220037 27 262 4.0 8.0 0.00 0.00 0.00 75 1012.7
20221209214532 27 250 4.0 10.0 0.00 0.01 0.00 75 1012.4
20221209213031 27 262 4.0 10.0 0.00 0.01 0.00 74 1012.2
20221209211538 28 248 5.0 10.0 0.00 0.01 0.00 74 1012.0
20221209210028 28 239 6.0 10.0 0.00 0.01 0.00 73 1011.9
20221209204522 28 253 6.0 10.0 0.00 0.01 0.00 73 1011.9
20221209203021 29 269 6.0 13.0 0.00 0.01 0.00 72 1011.6
20221209201522 29 276 7.0 17.0 0.00 0.01 0.00 71 1011.3
20221209200020 29 267 7.0 13.0 0.00 0.01 0.00 70 1011.2
20221209194522 29 292 6.0 12.0 0.00 0.01 0.00 72 1011.3
20221209193025 29 287 7.0 13.0 0.00 0.01 0.00 72 1011.4
20221209191518 29 297 5.0 10.0 0.00 0.01 0.00 73 1011.4
20221209190020 29 234 3.0 8.0 0.00 0.01 0.00 74 1011.3
20221209184521 29 235 5.0 11.0 0.00 0.01 0.00 74 1011.5
20221209183015 29 229 5.0 9.0 0.00 0.01 0.00 75 1011.4
20221209181514 29 245 4.0 8.0 0.00 0.01 0.00 73 1011.7
20221209180012 28 252 5.0 9.0 0.00 0.01 0.00 73 1011.9
20221209174520 28 283 4.0 9.0 0.00 0.01 0.00 73 1012.0
20221209173019 28 255 4.0 8.0 0.00 0.01 0.00 73 1012.1
20221209171513 27 245 7.0 12.0 0.00 0.01 0.00 73 1011.9
20221209170008 27 235 5.0 9.0 0.00 0.01 0.00 72 1012.2
20221209164510 27 295 4.0 10.0 0.00 0.01 0.00 72 1012.0
20221209163006 27 242 6.0 12.0 0.00 0.01 0.00 71 1011.8
20221209161509 26 275 4.0 8.0 0.00 0.01 0.00 74 1011.8
20221209160004 25 263 2.0 4.0 0.00 0.01 0.00 76 1011.9
20221209154503 24 167 0.0 3.0 0.00 0.01 0.00 76 1011.7
20221209153003 25 213 2.0 3.0 0.00 0.01 0.00 75 1011.6
20221209151506 26 244 2.0 3.0 0.00 0.01 0.00 74 1011.6
20221209150112 27 241 5.0 9.0 0.00 0.01 0.00 72 1011.4
20221209144602 27 239 9.0 13.0 0.00 0.01 0.00 71 1011.5
20221209143057 27 234 9.0 13.0 0.00 0.01 0.00 72 1011.8
20221209141604 27 211 6.0 11.0 0.00 0.01 0.00 71 1012.0
20221209140108 27 222 5.0 10.0 0.00 0.01 0.00 71 1012.1
20221209134558 26 215 6.0 10.0 0.00 0.01 0.00 72 1012.0
20221209133103 25 221 8.0 11.0 0.00 0.01 0.00 72 1012.3
20221209131551 25 226 9.0 12.0 0.00 0.01 0.00 73 1012.2
20221209130050 26 229 9.0 15.0 0.00 0.01 0.00 70 1012.2
20221209124643 24 215 8.0 13.0 0.00 0.01 0.00 75 1012.5
20221209123049 22 234 9.0 14.0 0.00 0.01 0.00 75 1012.5
20221209121540 21 228 10.0 14.0 0.00 0.01 0.00 75 1012.7
20221209120039 20 211 9.0 12.0 0.00 0.01 0.00 76 1013.0
20221209114537 19 227 8.0 11.0 0.00 0.01 0.00 77 1013.2
20221209113034 19 238 6.0 10.0 0.00 0.01 0.00 75 1013.3
20221209111534 20 250 6.0 11.0 0.00 0.01 0.00 75 1013.5
20221209110032 20 222 11.0 13.0 0.00 0.01 0.00 73 1013.7
20221209104531 21 226 9.0 15.0 0.00 0.01 0.00 70 1013.9
20221209103029 23 215 13.0 18.0 0.00 0.01 0.00 71 1014.0
20221209101529 21 202 12.0 15.0 0.00 0.01 0.00 73 1014.1
20221209100030 22 209 10.0 15.0 0.00 0.01 0.00 72 1014.1
20221209094541 23 200 11.0 17.0 0.00 0.01 0.00 71 1014.2
20221209093026 24 248 9.0 15.0 0.00 0.01 0.00 72 1014.2
20221209091525 23 231 8.0 13.0 0.00 0.01 0.00 74 1014.2
20221209090025 24 238 7.0 14.0 0.00 0.01 0.00 71 1014.2
20221209084520 20 229 9.0 13.0 0.00 0.01 0.00 76 1014.4
20221209083018 19 234 5.0 9.0 0.00 0.01 0.00 76 1014.9
20221209081515 19 222 7.0 9.0 0.00 0.01 0.00 76 1015.1
20221209080011 18 205 6.0 9.0 0.00 0.01 0.00 76 1015.2
20221209074509 20 150 1.0 7.0 0.00 0.01 0.00 73 1015.4
20221209073018 21 234 2.0 9.0 0.00 0.01 0.00 74 1015.5
20221209071503 18 202 7.0 8.0 0.00 0.01 0.00 78 1015.7
20221209070101 18 192 5.0 7.0 0.00 0.01 0.00 77 1016.0
20221209064557 19 205 7.0 8.0 0.00 0.01 0.01 77 1016.2
20221209063056 18 229 5.0 8.0 0.00 0.01 0.01 78 1016.3
20221209061555 18 232 4.0 7.0 0.00 0.01 0.01 75 1016.4